sensor_id;sensor_type;location;lat;lon;timestamp;pressure;altitude;pressure_sealevel;temperature;humidity
37648;BME280;23490;53.656;10.076;2023-05-20T00:00:25;98695.25;;;-145.95;58.92
37648;BME280;23490;53.656;10.076;2023-05-20T00:02:50;98701.44;;;-145.95;59.09
37648;BME280;23490;53.656;10.076;2023-05-20T00:05:16;98693.19;;;-145.95;59.12
37648;BME280;23490;53.656;10.076;2023-05-20T00:07:42;98629.19;;;-145.95;59.76
37648;BME280;23490;53.656;10.076;2023-05-20T00:10:08;98687.00;;;-145.95;59.47
37648;BME280;23490;53.656;10.076;2023-05-20T00:12:33;98674.59;;;-145.95;59.41
37648;BME280;23490;53.656;10.076;2023-05-20T00:15:01;98703.53;;;-145.95;59.79
37648;BME280;23490;53.656;10.076;2023-05-20T00:17:27;98722.09;;;-145.95;61.20
37648;BME280;23490;53.656;10.076;2023-05-20T00:19:53;98695.25;;;-145.95;59.37
37648;BME280;23490;53.656;10.076;2023-05-20T00:22:19;98676.69;;;-145.95;58.21
37648;BME280;23490;53.656;10.076;2023-05-20T00:24:44;98670.47;;;-145.95;58.41
37648;BME280;23490;53.656;10.076;2023-05-20T00:27:10;98695.25;;;-145.95;59.75
37648;BME280;23490;53.656;10.076;2023-05-20T00:29:35;98734.50;;;-145.95;60.07
37648;BME280;23490;53.656;10.076;2023-05-20T00:32:00;98682.88;;;-145.95;59.54
37648;BME280;23490;53.656;10.076;2023-05-20T00:34:26;98707.66;;;-145.95;59.90
37648;BME280;23490;53.656;10.076;2023-05-20T00:36:51;98666.34;;;-145.95;59.02
37648;BME280;23490;53.656;10.076;2023-05-20T00:39:16;98670.47;;;-145.95;60.35
37648;BME280;23490;53.656;10.076;2023-05-20T00:41:42;98687.00;;;-145.95;61.09
37648;BME280;23490;53.656;10.076;2023-05-20T00:44:07;98674.59;;;-145.95;60.65
37648;BME280;23490;53.656;10.076;2023-05-20T00:46:34;98649.84;;;-145.95;59.95
37648;BME280;23490;53.656;10.076;2023-05-20T00:49:01;98662.22;;;-145.95;61.75
37648;BME280;23490;53.656;10.076;2023-05-20T00:51:26;98682.88;;;-145.95;61.85
37648;BME280;23490;53.656;10.076;2023-05-20T00:53:52;98720.03;;;-145.95;62.85
37648;BME280;23490;53.656;10.076;2023-05-20T00:56:19;98751.00;;;-145.95;64.03
37648;BME280;23490;53.656;10.076;2023-05-20T00:58:46;98705.59;;;-145.95;63.98
37648;BME280;23490;53.656;10.076;2023-05-20T01:01:11;98703.53;;;-145.95;64.31
37648;BME280;23490;53.656;10.076;2023-05-20T01:03:36;98709.72;;;-145.95;65.40
37648;BME280;23490;53.656;10.076;2023-05-20T01:06:02;98736.56;;;-145.95;67.04
37648;BME280;23490;53.656;10.076;2023-05-20T01:08:27;98753.06;;;-145.95;67.38
37648;BME280;23490;53.656;10.076;2023-05-20T01:11:35;98717.97;;;-145.95;67.75
37648;BME280;23490;53.656;10.076;2023-05-20T01:14:07;98734.50;;;-145.95;69.21
37648;BME280;23490;53.656;10.076;2023-05-20T01:16:34;98707.66;;;-145.95;68.80
37648;BME280;23490;53.656;10.076;2023-05-20T01:19:01;98722.09;;;-145.95;71.73
37648;BME280;23490;53.656;10.076;2023-05-20T01:21:29;98732.44;;;-145.95;70.19
37648;BME280;23490;53.656;10.076;2023-05-20T01:23:55;98744.81;;;-145.95;71.39
37648;BME280;23490;53.656;10.076;2023-05-20T01:26:21;98732.44;;;-145.95;73.13
37648;BME280;23490;53.656;10.076;2023-05-20T01:28:52;98738.63;;;-145.95;74.34
37648;BME280;23490;53.656;10.076;2023-05-20T01:31:23;98662.22;;;-145.95;72.37
37648;BME280;23490;53.656;10.076;2023-05-20T01:33:53;98757.19;;;-145.95;75.16
37648;BME280;23490;53.656;10.076;2023-05-20T01:36:20;98769.59;;;-145.95;75.73
37648;BME280;23490;53.656;10.076;2023-05-20T01:38:46;98794.38;;;-145.95;76.64
37648;BME280;23490;53.656;10.076;2023-05-20T01:41:12;98736.56;;;-145.95;74.83
37648;BME280;23490;53.656;10.076;2023-05-20T01:43:38;98740.69;;;-145.95;75.69
37648;BME280;23490;53.656;10.076;2023-05-20T01:46:07;98740.69;;;-145.95;75.83
37648;BME280;23490;53.656;10.076;2023-05-20T01:48:32;98748.94;;;-145.95;75.49
37648;BME280;23490;53.656;10.076;2023-05-20T01:50:59;98759.25;;;-145.95;77.28
37648;BME280;23490;53.656;10.076;2023-05-20T01:53:26;98784.03;;;-145.95;77.78
37648;BME280;23490;53.656;10.076;2023-05-20T01:55:51;98796.44;;;-145.95;79.16
37648;BME280;23490;53.656;10.076;2023-05-20T01:58:16;98736.56;;;-145.95;78.54
37648;BME280;23490;53.656;10.076;2023-05-20T02:00:42;98751.00;;;-145.95;78.64
37648;BME280;23490;53.656;10.076;2023-05-20T02:03:08;98786.09;;;-145.95;80.05
37648;BME280;23490;53.656;10.076;2023-05-20T02:05:33;98825.34;;;-145.95;79.75
37648;BME280;23490;53.656;10.076;2023-05-20T02:07:58;98794.38;;;-145.95;79.60
37648;BME280;23490;53.656;10.076;2023-05-20T02:10:24;98728.28;;;-145.95;79.07
37648;BME280;23490;53.656;10.076;2023-05-20T02:12:49;98806.75;;;-145.95;80.28
37648;BME280;23490;53.656;10.076;2023-05-20T02:15:16;98819.16;;;-145.95;80.78
37648;BME280;23490;53.656;10.076;2023-05-20T02:17:41;98777.84;;;-145.95;81.08
37648;BME280;23490;53.656;10.076;2023-05-20T02:20:07;98794.38;;;-145.95;83.69
37648;BME280;23490;53.656;10.076;2023-05-20T02:22:35;98790.25;;;-145.95;84.10
37648;BME280;23490;53.656;10.076;2023-05-20T02:25:02;98769.59;;;-145.95;84.51
37648;BME280;23490;53.656;10.076;2023-05-20T02:27:27;98831.53;;;-145.95;83.84
37648;BME280;23490;53.656;10.076;2023-05-20T02:29:53;98802.63;;;-145.95;87.38
37648;BME280;23490;53.656;10.076;2023-05-20T02:32:19;98831.53;;;-145.95;85.84
37648;BME280;23490;53.656;10.076;2023-05-20T02:34:45;98804.69;;;-145.95;85.43
37648;BME280;23490;53.656;10.076;2023-05-20T02:37:11;98835.66;;;-145.95;87.05
37648;BME280;23490;53.656;10.076;2023-05-20T02:39:37;98810.88;;;-145.95;84.62
37648;BME280;23490;53.656;10.076;2023-05-20T02:42:03;98889.34;;;-145.95;88.61
37648;BME280;23490;53.656;10.076;2023-05-20T02:44:29;98848.06;;;-145.95;87.72
37648;BME280;23490;53.656;10.076;2023-05-20T02:46:54;98821.22;;;-145.95;86.24
37648;BME280;23490;53.656;10.076;2023-05-20T02:49:19;98827.41;;;-145.95;86.42
37648;BME280;23490;53.656;10.076;2023-05-20T02:51:45;98790.25;;;-145.95;86.49
37648;BME280;23490;53.656;10.076;2023-05-20T02:54:11;98852.19;;;-145.95;86.48
37648;BME280;23490;53.656;10.076;2023-05-20T02:56:36;98829.47;;;-145.95;87.89
37648;BME280;23490;53.656;10.076;2023-05-20T02:59:01;98843.94;;;-145.95;88.89
37648;BME280;23490;53.656;10.076;2023-05-20T03:01:28;98781.97;;;-145.95;87.81
37648;BME280;23490;53.656;10.076;2023-05-20T03:03:54;98810.88;;;-145.95;88.31
37648;BME280;23490;53.656;10.076;2023-05-20T03:06:19;98860.44;;;-145.95;89.06
37648;BME280;23490;53.656;10.076;2023-05-20T03:08:45;98852.19;;;-145.95;90.56
37648;BME280;23490;53.656;10.076;2023-05-20T03:11:10;98837.72;;;-145.95;89.54
37648;BME280;23490;53.656;10.076;2023-05-20T03:13:37;98856.31;;;-145.95;89.23
37648;BME280;23490;53.656;10.076;2023-05-20T03:16:02;98823.28;;;-145.95;87.38
37648;BME280;23490;53.656;10.076;2023-05-20T03:18:28;98856.31;;;-145.95;89.86
37648;BME280;23490;53.656;10.076;2023-05-20T03:20:53;98846.00;;;-145.95;89.44
37648;BME280;23490;53.656;10.076;2023-05-20T03:23:19;98837.72;;;-145.95;90.60
37648;BME280;23490;53.656;10.076;2023-05-20T03:25:44;98860.44;;;-145.95;91.43
37648;BME280;23490;53.656;10.076;2023-05-20T03:28:10;98885.22;;;-145.95;92.47
37648;BME280;23490;53.656;10.076;2023-05-20T03:30:35;98819.16;;;-145.95;91.34
37648;BME280;23490;53.656;10.076;2023-05-20T03:33:02;98885.22;;;-145.95;91.99
37648;BME280;23490;53.656;10.076;2023-05-20T03:35:29;98837.72;;;-145.95;92.42
37648;BME280;23490;53.656;10.076;2023-05-20T03:37:54;98833.59;;;-145.95;92.54
37648;BME280;23490;53.656;10.076;2023-05-20T03:40:22;98829.47;;;-145.95;93.58
37648;BME280;23490;53.656;10.076;2023-05-20T03:42:48;98864.56;;;-145.95;92.06
37648;BME280;23490;53.656;10.076;2023-05-20T03:45:16;98864.56;;;-145.95;92.32
37648;BME280;23490;53.656;10.076;2023-05-20T03:47:42;98860.44;;;-145.95;93.80
37648;BME280;23490;53.656;10.076;2023-05-20T03:50:08;98848.06;;;-145.95;93.38
37648;BME280;23490;53.656;10.076;2023-05-20T03:52:34;98829.47;;;-145.95;94.71
37648;BME280;23490;53.656;10.076;2023-05-20T03:55:00;98860.44;;;-145.95;94.98
37648;BME280;23490;53.656;10.076;2023-05-20T03:57:25;98825.34;;;-145.95;95.13
37648;BME280;23490;53.656;10.076;2023-05-20T03:59:51;98848.06;;;-145.95;95.49
37648;BME280;23490;53.656;10.076;2023-05-20T04:02:16;98821.22;;;-145.95;95.29
37648;BME280;23490;53.656;10.076;2023-05-20T04:04:43;98841.84;;;-145.95;94.34
37648;BME280;23490;53.656;10.076;2023-05-20T04:07:09;98872.84;;;-145.95;95.99
37648;BME280;23490;53.656;10.076;2023-05-20T04:09:36;98831.53;;;-145.95;95.42
37648;BME280;23490;53.656;10.076;2023-05-20T04:12:01;98856.31;;;-145.95;96.30
37648;BME280;23490;53.656;10.076;2023-05-20T04:14:27;98825.34;;;-145.95;96.37
37648;BME280;23490;53.656;10.076;2023-05-20T04:16:52;98817.09;;;-145.95;96.17
37648;BME280;23490;53.656;10.076;2023-05-20T04:19:20;98794.38;;;-145.95;97.27
37648;BME280;23490;53.656;10.076;2023-05-20T04:21:45;98819.16;;;-145.95;96.56
37648;BME280;23490;53.656;10.076;2023-05-20T04:24:10;98790.25;;;-145.95;95.01
37648;BME280;23490;53.656;10.076;2023-05-20T04:26:36;98843.94;;;-145.95;96.55
37648;BME280;23490;53.656;10.076;2023-05-20T04:29:01;98846.00;;;-145.95;95.79
37648;BME280;23490;53.656;10.076;2023-05-20T04:31:28;98806.75;;;-145.95;96.31
37648;BME280;23490;53.656;10.076;2023-05-20T04:33:55;98831.53;;;-145.95;95.79
37648;BME280;23490;53.656;10.076;2023-05-20T04:36:21;98773.72;;;-145.95;95.41
37648;BME280;23490;53.656;10.076;2023-05-20T04:38:46;98777.84;;;-145.95;95.60
37648;BME280;23490;53.656;10.076;2023-05-20T04:41:13;98765.47;;;-145.95;96.89
37648;BME280;23490;53.656;10.076;2023-05-20T04:43:41;98777.84;;;-145.95;95.71
37648;BME280;23490;53.656;10.076;2023-05-20T04:46:08;98794.38;;;-145.95;97.02
37648;BME280;23490;53.656;10.076;2023-05-20T04:48:34;98806.75;;;-145.95;96.70
37648;BME280;23490;53.656;10.076;2023-05-20T04:50:59;98775.78;;;-145.95;96.01
37648;BME280;23490;53.656;10.076;2023-05-20T04:53:26;98792.31;;;-145.95;96.16
37648;BME280;23490;53.656;10.076;2023-05-20T04:55:55;98732.44;;;-145.95;95.43
37648;BME280;23490;53.656;10.076;2023-05-20T04:58:21;98786.09;;;-145.95;95.19
37648;BME280;23490;53.656;10.076;2023-05-20T05:00:48;98781.97;;;-145.95;96.05
37648;BME280;23490;53.656;10.076;2023-05-20T05:03:14;98744.81;;;-145.95;96.04
37648;BME280;23490;53.656;10.076;2023-05-20T05:05:39;98724.16;;;-145.95;95.69
37648;BME280;23490;53.656;10.076;2023-05-20T05:08:07;98728.28;;;-145.95;95.46
37648;BME280;23490;53.656;10.076;2023-05-20T05:10:35;98678.75;;;-145.95;94.84
37648;BME280;23490;53.656;10.076;2023-05-20T05:13:00;98738.63;;;-145.95;94.63
37648;BME280;23490;53.656;10.076;2023-05-20T05:15:29;98689.06;;;-145.95;95.59
37648;BME280;23490;53.656;10.076;2023-05-20T05:17:54;98703.53;;;-145.95;94.74
37648;BME280;23490;53.656;10.076;2023-05-20T05:20:20;98697.31;;;-145.95;94.51
37648;BME280;23490;53.656;10.076;2023-05-20T05:22:46;98639.50;;;-145.95;94.23
37648;BME280;23490;53.656;10.076;2023-05-20T05:25:11;98713.84;;;-145.95;94.46
37648;BME280;23490;53.656;10.076;2023-05-20T05:27:38;98674.59;;;-145.95;95.01
37648;BME280;23490;53.656;10.076;2023-05-20T05:30:05;98680.81;;;-145.95;93.73
37648;BME280;23490;53.656;10.076;2023-05-20T05:32:30;98676.69;;;-145.95;93.83
37648;BME280;23490;53.656;10.076;2023-05-20T05:34:56;98682.88;;;-145.95;93.18
37648;BME280;23490;53.656;10.076;2023-05-20T05:37:22;98629.19;;;-145.95;92.52
37648;BME280;23490;53.656;10.076;2023-05-20T05:39:48;98649.84;;;-145.95;92.52
37648;BME280;23490;53.656;10.076;2023-05-20T05:42:14;98608.53;;;-145.95;91.88
37648;BME280;23490;53.656;10.076;2023-05-20T05:44:39;98604.41;;;-145.95;92.62
37648;BME280;23490;53.656;10.076;2023-05-20T05:47:05;98625.06;;;-145.95;91.68
37648;BME280;23490;53.656;10.076;2023-05-20T05:49:32;98592.03;;;-145.95;91.93
37648;BME280;23490;53.656;10.076;2023-05-20T05:51:58;98616.78;;;-145.95;91.54
37648;BME280;23490;53.656;10.076;2023-05-20T05:54:23;98592.03;;;-145.95;90.99
37648;BME280;23490;53.656;10.076;2023-05-20T05:56:52;98585.81;;;-145.95;91.32
37648;BME280;23490;53.656;10.076;2023-05-20T05:59:18;98558.97;;;-145.95;89.71
37648;BME280;23490;53.656;10.076;2023-05-20T06:01:44;98581.69;;;-145.95;89.64
37648;BME280;23490;53.656;10.076;2023-05-20T06:04:10;98577.56;;;-145.95;89.21
37648;BME280;23490;53.656;10.076;2023-05-20T06:06:35;98585.81;;;-145.95;89.69
37648;BME280;23490;53.656;10.076;2023-05-20T06:09:01;98544.53;;;-145.95;89.81
37648;BME280;23490;53.656;10.076;2023-05-20T06:11:28;98542.47;;;-145.95;88.39
37648;BME280;23490;53.656;10.076;2023-05-20T06:13:53;98538.34;;;-145.95;88.83
37648;BME280;23490;53.656;10.076;2023-05-20T06:16:19;98530.06;;;-145.95;88.07
37648;BME280;23490;53.656;10.076;2023-05-20T06:18:45;98509.44;;;-145.95;87.36
37648;BME280;23490;53.656;10.076;2023-05-20T06:21:11;98546.59;;;-145.95;86.85
37648;BME280;23490;53.656;10.076;2023-05-20T06:23:36;98511.50;;;-145.95;86.60
37648;BME280;23490;53.656;10.076;2023-05-20T06:26:02;98497.03;;;-145.95;86.71
37648;BME280;23490;53.656;10.076;2023-05-20T06:28:29;98484.66;;;-145.95;86.62
37648;BME280;23490;53.656;10.076;2023-05-20T06:30:55;98497.03;;;-145.95;85.82
37648;BME280;23490;53.656;10.076;2023-05-20T06:33:25;98447.50;;;-145.95;85.20
37648;BME280;23490;53.656;10.076;2023-05-20T06:36:00;98511.50;;;-145.95;85.41
37648;BME280;23490;53.656;10.076;2023-05-20T06:38:27;98435.09;;;-145.95;84.67
37648;BME280;23490;53.656;10.076;2023-05-20T06:40:52;98451.63;;;-145.95;85.53
37648;BME280;23490;53.656;10.076;2023-05-20T06:43:18;98418.59;;;-145.95;83.70
37648;BME280;23490;53.656;10.076;2023-05-20T06:45:44;98437.16;;;-145.95;83.26
37648;BME280;23490;53.656;10.076;2023-05-20T06:48:10;98379.38;;;-145.95;81.77
37648;BME280;23490;53.656;10.076;2023-05-20T06:50:36;98395.88;;;-145.95;80.94
37648;BME280;23490;53.656;10.076;2023-05-20T06:53:02;98377.28;;;-145.95;80.20
37648;BME280;23490;53.656;10.076;2023-05-20T06:55:29;98393.81;;;-145.95;81.11
37648;BME280;23490;53.656;10.076;2023-05-20T06:57:54;98344.25;;;-145.95;79.22
37648;BME280;23490;53.656;10.076;2023-05-20T07:00:20;98327.75;;;-145.95;78.64
37648;BME280;23490;53.656;10.076;2023-05-20T07:02:45;98302.97;;;-145.95;79.67
37648;BME280;23490;53.656;10.076;2023-05-20T07:05:10;98298.84;;;-145.95;77.31
37648;BME280;23490;53.656;10.076;2023-05-20T07:07:36;98269.94;;;-145.95;76.58
37648;BME280;23490;53.656;10.076;2023-05-20T07:10:03;98257.56;;;-145.95;76.24
37648;BME280;23490;53.656;10.076;2023-05-20T07:12:30;98241.03;;;-145.95;75.15
37648;BME280;23490;53.656;10.076;2023-05-20T07:14:55;98199.75;;;-145.95;75.33
37648;BME280;23490;53.656;10.076;2023-05-20T07:17:23;98232.78;;;-145.95;75.53
37648;BME280;23490;53.656;10.076;2023-05-20T07:19:49;98199.75;;;-145.95;73.83
37648;BME280;23490;53.656;10.076;2023-05-20T07:22:14;98232.78;;;-145.95;73.65
37648;BME280;23490;53.656;10.076;2023-05-20T07:24:40;98210.06;;;-145.95;74.41
37648;BME280;23490;53.656;10.076;2023-05-20T07:27:05;98164.66;;;-145.95;72.94
37648;BME280;23490;53.656;10.076;2023-05-20T07:29:30;98177.03;;;-145.95;70.66
37648;BME280;23490;53.656;10.076;2023-05-20T07:31:57;98158.47;;;-145.95;70.16
37648;BME280;23490;53.656;10.076;2023-05-20T07:34:24;98170.84;;;-145.95;72.03
37648;BME280;23490;53.656;10.076;2023-05-20T07:36:49;98158.47;;;-145.95;69.87
37648;BME280;23490;53.656;10.076;2023-05-20T07:39:15;98139.88;;;-145.95;72.14
37648;BME280;23490;53.656;10.076;2023-05-20T07:41:41;98108.91;;;-145.95;70.31
37648;BME280;23490;53.656;10.076;2023-05-20T07:44:06;98094.47;;;-145.95;69.65
37648;BME280;23490;53.656;10.076;2023-05-20T07:46:36;98080.00;;;-145.95;67.55
37648;BME280;23490;53.656;10.076;2023-05-20T07:49:03;98051.09;;;-145.95;66.86
37648;BME280;23490;53.656;10.076;2023-05-20T07:51:29;98038.72;;;-145.95;68.06
37648;BME280;23490;53.656;10.076;2023-05-20T07:53:55;97993.31;;;-145.95;66.56
37648;BME280;23490;53.656;10.076;2023-05-20T07:56:21;97956.16;;;-145.95;67.67
37648;BME280;23490;53.656;10.076;2023-05-20T07:58:54;97956.16;;;-145.95;63.26
37648;BME280;23490;53.656;10.076;2023-05-20T08:01:20;97991.25;;;-145.95;64.97
37648;BME280;23490;53.656;10.076;2023-05-20T08:03:46;97927.25;;;-145.95;62.97
37648;BME280;23490;53.656;10.076;2023-05-20T08:06:11;97989.19;;;-145.95;63.64
37648;BME280;23490;53.656;10.076;2023-05-20T08:08:37;97931.38;;;-145.95;61.53
37648;BME280;23490;53.656;10.076;2023-05-20T08:11:04;97941.69;;;-145.95;61.85
37648;BME280;23490;53.656;10.076;2023-05-20T08:13:30;97857.06;;;-145.95;61.17
37648;BME280;23490;53.656;10.076;2023-05-20T08:15:55;97881.84;;;-145.95;61.03
37648;BME280;23490;53.656;10.076;2023-05-20T08:18:21;97890.09;;;-145.95;61.83
37648;BME280;23490;53.656;10.076;2023-05-20T08:20:47;97873.56;;;-145.95;60.80
37648;BME280;23490;53.656;10.076;2023-05-20T08:23:12;97786.88;;;-145.95;60.12
37648;BME280;23490;53.656;10.076;2023-05-20T08:25:37;97712.56;;;-145.95;58.71
37648;BME280;23490;53.656;10.076;2023-05-20T08:28:03;97638.25;;;-145.95;57.51
37648;BME280;23490;53.656;10.076;2023-05-20T08:30:31;97681.59;;;-145.95;54.33
37648;BME280;23490;53.656;10.076;2023-05-20T08:32:56;97857.06;;;-145.95;56.38
37648;BME280;23490;53.656;10.076;2023-05-20T08:35:23;97824.03;;;-145.95;57.04
37648;BME280;23490;53.656;10.076;2023-05-20T08:37:48;97919.00;;;-145.95;57.06
37648;BME280;23490;53.656;10.076;2023-05-20T08:40:14;97885.97;;;-145.95;58.14
37648;BME280;23490;53.656;10.076;2023-05-20T08:42:41;97877.69;;;-145.95;58.08
37648;BME280;23490;53.656;10.076;2023-05-20T08:45:09;97724.94;;;-145.95;57.31
37648;BME280;23490;53.656;10.076;2023-05-20T08:47:37;97675.41;;;-145.95;54.52
37648;BME280;23490;53.656;10.076;2023-05-20T08:50:03;97846.75;;;-145.95;55.29
37648;BME280;23490;53.656;10.076;2023-05-20T08:52:31;97782.75;;;-145.95;54.91
37648;BME280;23490;53.656;10.076;2023-05-20T08:55:01;97766.22;;;-145.95;54.39
37648;BME280;23490;53.656;10.076;2023-05-20T08:57:27;97873.56;;;-145.95;55.30
37648;BME280;23490;53.656;10.076;2023-05-20T08:59:54;97906.59;;;-145.95;57.08
37648;BME280;23490;53.656;10.076;2023-05-20T09:02:20;97850.88;;;-145.95;56.99
37648;BME280;23490;53.656;10.076;2023-05-20T09:04:46;97906.59;;;-145.95;56.31
37648;BME280;23490;53.656;10.076;2023-05-20T09:07:11;97877.69;;;-145.95;55.88
37648;BME280;23490;53.656;10.076;2023-05-20T09:09:39;97925.19;;;-145.95;55.01
37648;BME280;23490;53.656;10.076;2023-05-20T09:12:05;97830.22;;;-145.95;53.99
37648;BME280;23490;53.656;10.076;2023-05-20T09:14:31;97947.88;;;-145.95;54.95
37648;BME280;23490;53.656;10.076;2023-05-20T09:16:58;97801.31;;;-145.95;53.75
37648;BME280;23490;53.656;10.076;2023-05-20T09:19:23;97803.38;;;-145.95;52.93
37648;BME280;23490;53.656;10.076;2023-05-20T09:21:53;97840.53;;;-145.95;52.24
37648;BME280;23490;53.656;10.076;2023-05-20T09:24:23;97745.59;;;-145.95;51.94
37648;BME280;23490;53.656;10.076;2023-05-20T09:26:49;97755.91;;;-145.95;53.50
37648;BME280;23490;53.656;10.076;2023-05-20T09:29:14;97770.34;;;-145.95;53.92
37648;BME280;23490;53.656;10.076;2023-05-20T09:31:40;97770.34;;;-145.95;52.37
37648;BME280;23490;53.656;10.076;2023-05-20T09:34:07;97817.84;;;-145.95;54.07
37648;BME280;23490;53.656;10.076;2023-05-20T09:36:35;97890.09;;;-145.95;52.98
37648;BME280;23490;53.656;10.076;2023-05-20T09:39:02;97898.34;;;-145.95;55.69
37648;BME280;23490;53.656;10.076;2023-05-20T09:41:33;97848.81;;;-145.95;54.10
37648;BME280;23490;53.656;10.076;2023-05-20T09:44:01;97921.06;;;-145.95;54.50
37648;BME280;23490;53.656;10.076;2023-05-20T09:46:28;97933.44;;;-145.95;54.98
37648;BME280;23490;53.656;10.076;2023-05-20T09:48:55;97834.34;;;-145.95;54.50
37648;BME280;23490;53.656;10.076;2023-05-20T09:51:22;97919.00;;;-145.95;53.85
37648;BME280;23490;53.656;10.076;2023-05-20T09:53:48;97919.00;;;-145.95;53.81
37648;BME280;23490;53.656;10.076;2023-05-20T09:56:13;97910.72;;;-145.95;54.58
37648;BME280;23490;53.656;10.076;2023-05-20T09:58:41;97890.09;;;-145.95;54.66
37648;BME280;23490;53.656;10.076;2023-05-20T10:01:09;97906.59;;;-145.95;54.59
37648;BME280;23490;53.656;10.076;2023-05-20T10:03:35;97885.97;;;-145.95;53.97
37648;BME280;23490;53.656;10.076;2023-05-20T10:06:16;97972.66;;;-145.95;54.45
37648;BME280;23490;53.656;10.076;2023-05-20T10:09:09;97904.53;;;-145.95;55.49
37648;BME280;23490;53.656;10.076;2023-05-20T10:11:57;97989.19;;;-145.95;55.12
37648;BME280;23490;53.656;10.076;2023-05-20T10:14:48;98001.56;;;-145.95;55.03
37648;BME280;23490;53.656;10.076;2023-05-20T10:17:25;97970.59;;;-145.95;56.03
37648;BME280;23490;53.656;10.076;2023-05-20T10:19:59;97943.75;;;-145.95;55.91
37648;BME280;23490;53.656;10.076;2023-05-20T10:22:26;97923.13;;;-145.95;56.49
37648;BME280;23490;53.656;10.076;2023-05-20T10:24:58;97929.31;;;-145.95;55.83
37648;BME280;23490;53.656;10.076;2023-05-20T10:27:24;97902.47;;;-145.95;56.56
37648;BME280;23490;53.656;10.076;2023-05-20T10:29:51;97943.75;;;-145.95;56.28
37648;BME280;23490;53.656;10.076;2023-05-20T10:32:27;97968.53;;;-145.95;55.80
37648;BME280;23490;53.656;10.076;2023-05-20T10:34:58;97914.84;;;-145.95;56.91
37648;BME280;23490;53.656;10.076;2023-05-20T10:37:26;98030.47;;;-145.95;58.93
37648;BME280;23490;53.656;10.076;2023-05-20T10:39:52;97914.84;;;-145.95;58.83
37648;BME280;23490;53.656;10.076;2023-05-20T10:42:27;97935.50;;;-145.95;59.32
37648;BME280;23490;53.656;10.076;2023-05-20T10:44:54;97902.47;;;-145.95;60.05
37648;BME280;23490;53.656;10.076;2023-05-20T10:47:20;97857.06;;;-145.95;59.98
37648;BME280;23490;53.656;10.076;2023-05-20T10:49:45;97840.53;;;-145.95;59.91
37648;BME280;23490;53.656;10.076;2023-05-20T10:52:18;97848.81;;;-145.95;58.20
37648;BME280;23490;53.656;10.076;2023-05-20T10:54:45;97873.56;;;-145.95;59.21
37648;BME280;23490;53.656;10.076;2023-05-20T10:57:11;97865.31;;;-145.95;57.93
37648;BME280;23490;53.656;10.076;2023-05-20T10:59:36;97881.84;;;-145.95;57.07
37648;BME280;23490;53.656;10.076;2023-05-20T11:02:02;97894.22;;;-145.95;57.63
37648;BME280;23490;53.656;10.076;2023-05-20T11:04:28;97976.78;;;-145.95;56.79
37648;BME280;23490;53.656;10.076;2023-05-20T11:06:54;97964.41;;;-145.95;57.19
37648;BME280;23490;53.656;10.076;2023-05-20T11:09:23;97892.16;;;-145.95;56.99
37648;BME280;23490;53.656;10.076;2023-05-20T11:11:50;97964.41;;;-145.95;57.59
37648;BME280;23490;53.656;10.076;2023-05-20T11:14:16;97902.47;;;-145.95;56.76
37648;BME280;23490;53.656;10.076;2023-05-20T11:16:45;97910.72;;;-145.95;55.96
37648;BME280;23490;53.656;10.076;2023-05-20T11:19:15;97869.44;;;-145.95;55.85
37648;BME280;23490;53.656;10.076;2023-05-20T11:21:42;97985.03;;;-145.95;56.21
37648;BME280;23490;53.656;10.076;2023-05-20T11:24:09;97972.66;;;-145.95;58.86
37648;BME280;23490;53.656;10.076;2023-05-20T11:26:35;97941.69;;;-145.95;58.77
37648;BME280;23490;53.656;10.076;2023-05-20T11:29:01;97914.84;;;-145.95;58.87
37648;BME280;23490;53.656;10.076;2023-05-20T11:31:27;97960.28;;;-145.95;59.97
37648;BME280;23490;53.656;10.076;2023-05-20T11:33:54;97945.81;;;-145.95;59.60
37648;BME280;23490;53.656;10.076;2023-05-20T11:36:21;97906.59;;;-145.95;59.38
37648;BME280;23490;53.656;10.076;2023-05-20T11:38:46;97980.91;;;-145.95;60.75
37648;BME280;23490;53.656;10.076;2023-05-20T11:41:12;97960.28;;;-145.95;60.20
37648;BME280;23490;53.656;10.076;2023-05-20T11:43:37;97939.63;;;-145.95;62.77
37648;BME280;23490;53.656;10.076;2023-05-20T11:46:03;97989.19;;;-145.95;63.16
37648;BME280;23490;53.656;10.076;2023-05-20T11:48:29;97997.44;;;-145.95;62.88
37648;BME280;23490;53.656;10.076;2023-05-20T11:50:55;98013.94;;;-145.95;63.12
37648;BME280;23490;53.656;10.076;2023-05-20T11:53:23;97989.19;;;-145.95;63.64
37648;BME280;23490;53.656;10.076;2023-05-20T11:55:51;98018.06;;;-145.95;64.39
37648;BME280;23490;53.656;10.076;2023-05-20T11:58:20;97976.78;;;-145.95;65.19
37648;BME280;23490;53.656;10.076;2023-05-20T12:00:47;97985.03;;;-145.95;65.00
37648;BME280;23490;53.656;10.076;2023-05-20T12:03:12;98044.91;;;-145.95;64.84
37648;BME280;23490;53.656;10.076;2023-05-20T12:05:38;97972.66;;;-145.95;63.91
37648;BME280;23490;53.656;10.076;2023-05-20T12:08:05;97985.03;;;-145.95;63.61
37648;BME280;23490;53.656;10.076;2023-05-20T12:10:30;97954.09;;;-145.95;63.88
37648;BME280;23490;53.656;10.076;2023-05-20T12:12:56;98003.63;;;-145.95;63.96
37648;BME280;23490;53.656;10.076;2023-05-20T12:15:21;98001.56;;;-145.95;63.39
37648;BME280;23490;53.656;10.076;2023-05-20T12:17:48;97976.78;;;-145.95;63.76
37648;BME280;23490;53.656;10.076;2023-05-20T12:20:15;98022.22;;;-145.95;65.19
37648;BME280;23490;53.656;10.076;2023-05-20T12:22:42;98038.72;;;-145.95;64.88
37648;BME280;23490;53.656;10.076;2023-05-20T12:25:10;98005.69;;;-145.95;65.32
37648;BME280;23490;53.656;10.076;2023-05-20T12:27:36;98055.22;;;-145.95;67.08